Time;durP1;ratioP1;P1;durP2;ratioP2;P2;SDS_P1;SDS_P2;PMS_P1;PMS_P2;Temp;Humidity;BMP_temperature;BMP_pressure;BME280_temperature;BME280_humidity;BME280_pressure;Samples;Min_cycle;Max_cycle;Signal;HPM_P1;HPM_P2
2022/06/15 00:01:33;;;;;;;10.25;3.00;;;;;;;11.14;55.37;101495.25;5053379;28;20072;-66
2022/06/15 00:04:02;;;;;;;16.42;2.28;;;;;;;11.00;55.17;101496.56;5054198;28;20052;-67
2022/06/15 00:06:31;;;;;;;10.10;2.40;;;;;;;10.98;55.25;101499.38;5053624;28;20469;-67
2022/06/15 00:08:59;;;;;;;10.05;2.85;;;;;;;11.06;55.04;101497.78;5053566;28;20140;-67
2022/06/15 00:11:27;;;;;;;8.48;2.65;;;;;;;11.10;55.10;101500.06;5053250;28;20143;-65
2022/06/15 00:13:55;;;;;;;10.10;2.42;;;;;;;11.10;55.32;101489.31;5053425;28;20049;-66
2022/06/15 00:16:22;;;;;;;11.48;3.15;;;;;;;11.06;55.66;101497.78;5053592;28;20041;-66
2022/06/15 00:18:48;;;;;;;8.68;2.67;;;;;;;10.99;56.05;101489.47;5052882;28;20061;-67
2022/06/15 00:21:18;;;;;;;10.68;3.13;;;;;;;11.06;56.04;101497.78;5053819;28;20432;-66
2022/06/15 00:23:45;;;;;;;10.40;2.65;;;;;;;10.98;56.12;101485.09;5053839;28;20145;-66
2022/06/15 00:26:13;;;;;;;12.80;2.78;;;;;;;10.92;56.34;101483.81;5053191;28;20135;-67
2022/06/15 00:28:40;;;;;;;9.82;3.15;;;;;;;10.95;56.36;101483.53;5053208;28;20481;-66
2022/06/15 00:31:06;;;;;;;7.18;2.45;;;;;;;10.91;56.53;101482.13;5053795;28;20088;-66
2022/06/15 00:33:36;;;;;;;9.95;2.83;;;;;;;10.96;56.60;101487.06;5053793;28;20053;-66
2022/06/15 00:36:06;;;;;;;9.50;2.45;;;;;;;10.92;56.60;101483.81;5054118;28;20045;-66
2022/06/15 00:38:39;;;;;;;10.05;2.72;;;;;;;10.88;56.50;101485.09;5054338;28;20381;-67
2022/06/15 00:41:08;;;;;;;7.28;2.55;;;;;;;10.87;56.46;101478.06;5053807;28;20076;-65
2022/06/15 00:43:36;;;;;;;6.30;2.58;;;;;;;10.79;56.64;101477.94;5053826;28;20059;-66
2022/06/15 00:46:20;;;;;;;11.15;3.10;;;;;;;10.84;56.77;101482.88;5053578;28;20083;-67
2022/06/15 00:48:50;;;;;;;9.88;2.40;;;;;;;10.82;56.61;101483.00;5053555;28;20130;-66
2022/06/15 00:51:18;;;;;;;11.90;2.57;;;;;;;10.79;56.72;101480.63;5053651;28;20076;-66
2022/06/15 00:53:46;;;;;;;10.32;2.75;;;;;;;10.81;56.53;101486.66;5053741;28;20136;-66
2022/06/15 00:56:14;;;;;;;8.10;2.50;;;;;;;10.77;56.63;101487.09;5053588;28;20466;-67
2022/06/15 00:58:46;;;;;;;14.10;3.17;;;;;;;10.76;56.44;101485.44;5053646;28;20088;-66
2022/06/15 01:01:13;;;;;;;11.85;3.13;;;;;;;10.76;56.25;101486.28;5053539;28;20089;-66
2022/06/15 01:03:40;;;;;;;6.90;2.13;;;;;;;10.73;56.09;101482.03;5055543;28;20049;-66
2022/06/15 01:10:17;;;;;;;6.10;2.08;;;;;;;10.65;56.00;101487.25;5056784;28;20091;-66
2022/06/15 01:13:03;;;;;;;6.75;2.30;;;;;;;10.59;56.17;101487.81;5057261;28;20045;-67
2022/06/15 01:15:56;;;;;;;11.13;2.20;;;;;;;10.57;56.01;101487.09;5056021;28;20140;-67
2022/06/15 01:18:36;;;;;;;7.53;2.28;;;;;;;10.54;56.19;101482.03;5056276;28;20064;-66
2022/06/15 01:21:11;;;;;;;9.38;2.45;;;;;;;10.57;56.28;101483.59;5056441;28;20045;-66
2022/06/15 01:24:16;;;;;;;8.65;2.33;;;;;;;10.57;56.54;101480.91;5057212;28;20084;-67
2022/06/15 01:26:56;;;;;;;5.78;2.17;;;;;;;10.50;57.21;101481.47;5056252;28;20076;-66
2022/06/15 01:29:48;;;;;;;7.82;2.72;;;;;;;10.50;57.30;101481.47;5056006;28;20091;-66
2022/06/15 01:32:42;;;;;;;9.63;2.50;;;;;;;10.44;57.49;101475.78;5056131;28;20501;-66
2022/06/15 01:35:29;;;;;;;9.68;2.53;;;;;;;10.46;57.61;101474.66;5055026;28;20081;-66
2022/06/15 01:38:25;;;;;;;10.30;2.45;;;;;;;10.41;57.80;101471.56;5055955;28;20095;-67
2022/06/15 01:41:03;;;;;;;10.25;3.00;;;;;;;10.40;57.90;101477.91;5055791;28;20072;-67
2022/06/15 01:43:35;;;;;;;10.27;2.67;;;;;;;10.40;57.66;101477.06;5056595;28;20084;-67
2022/06/15 01:46:02;;;;;;;;;;;;;;;10.36;57.87;101484.53;5056070;28;20413;-67
2022/06/15 01:48:30;;;;;;;8.82;2.80;;;;;;;10.38;57.87;101474.53;5056098;28;19927;-67
2022/06/15 01:51:04;;;;;;;9.77;2.80;;;;;;;10.34;58.12;101477.59;5056252;28;20057;-66
2022/06/15 01:53:36;;;;;;;12.68;2.90;;;;;;;10.31;58.33;101477.91;5056025;28;20509;-67
2022/06/15 01:56:23;;;;;;;18.20;3.90;;;;;;;10.29;58.71;101475.34;5056112;28;20063;-67
2022/06/15 01:59:01;;;;;;;8.25;3.55;;;;;;;10.26;58.80;101464.91;5055670;28;20135;-66
2022/06/15 02:01:37;;;;;;;10.75;3.35;;;;;;;10.22;58.71;101463.50;5055125;28;20084;-66
2022/06/15 02:04:19;;;;;;;8.80;2.85;;;;;;;10.19;58.73;101469.97;5056260;28;20053;-66
2022/06/15 02:06:56;;;;;;;9.65;3.13;;;;;;;10.16;58.81;101480.97;5055236;28;20084;-65
2022/06/15 02:09:31;;;;;;;9.85;2.95;;;;;;;10.18;58.94;101470.13;5055121;28;20140;-66
2022/06/15 02:12:02;;;;;;;7.93;2.80;;;;;;;10.15;59.08;101478.44;5055374;28;20140;-65
2022/06/15 02:14:44;;;;;;;8.23;2.40;;;;;;;10.11;59.39;101469.84;5054992;28;20091;-67
2022/06/15 02:17:18;;;;;;;9.13;2.75;;;;;;;10.18;59.48;101475.50;5054932;28;20135;-66
2022/06/15 02:19:48;;;;;;;9.77;3.33;;;;;;;10.20;59.50;101469.00;5055617;28;20045;-65
2022/06/15 02:22:23;;;;;;;12.77;3.53;;;;;;;10.18;59.78;101470.13;5054910;28;20174;-66
2022/06/15 02:24:54;;;;;;;11.02;3.70;;;;;;;10.19;59.68;101477.19;5056139;28;20085;-67
2022/06/15 02:27:23;;;;;;;9.43;3.75;;;;;;;10.17;59.69;101471.13;5055960;28;20083;-66
2022/06/15 02:29:54;;;;;;;11.82;3.55;;;;;;;10.09;59.54;101476.31;5055736;28;20523;-66
2022/06/15 02:32:24;;;;;;;9.10;3.20;;;;;;;10.06;59.53;101465.88;5055090;28;20099;-66
2022/06/15 02:34:51;;;;;;;9.88;3.40;;;;;;;9.97;59.30;101465.72;5055048;28;20465;-66
2022/06/15 02:37:17;;;;;;;13.25;3.33;;;;;;;10.03;59.84;101461.66;5055696;28;20049;-66
2022/06/15 02:39:44;;;;;;;6.47;3.38;;;;;;;9.96;60.11;101460.50;5054922;28;20524;-66
2022/06/15 02:42:25;;;;;;;10.73;3.50;;;;;;;9.94;60.15;101463.31;5054527;28;20103;-66
2022/06/15 02:44:56;;;;;;;7.85;3.10;;;;;;;9.95;60.14;101462.31;5055019;28;20139;-67
2022/06/15 02:47:26;;;;;;;8.07;3.92;;;;;;;9.89;60.61;101459.34;5055687;28;20075;-66
2022/06/15 02:49:53;;;;;;;7.32;3.60;;;;;;;9.85;60.50;101466.81;5054704;28;20527;-65
2022/06/15 02:52:24;;;;;;;9.50;3.67;;;;;;;9.88;60.08;101458.50;5054489;28;20127;-65
2022/06/15 02:54:53;;;;;;;16.10;4.10;;;;;;;9.86;60.48;101468.53;5054523;28;20144;-66
2022/06/15 02:57:21;;;;;;;7.78;3.40;;;;;;;9.82;60.68;101480.50;5054194;28;20052;-67
2022/06/15 02:59:48;;;;;;;14.65;3.70;;;;;;;9.82;60.61;101469.78;5054791;28;20592;-67
2022/06/15 03:02:15;;;;;;;11.60;4.43;;;;;;;9.84;60.74;101466.97;5054634;28;20045;-66
2022/06/15 03:04:43;;;;;;;15.52;4.40;;;;;;;9.80;60.94;101475.25;5054360;28;20059;-66
2022/06/15 03:07:11;;;;;;;15.52;4.20;;;;;;;9.83;60.76;101481.34;5053892;28;20136;-66
2022/06/15 03:09:39;;;;;;;12.77;3.50;;;;;;;9.80;60.43;101467.22;5055441;28;20056;-66
2022/06/15 03:12:07;;;;;;;8.98;3.20;;;;;;;9.85;60.41;101474.84;5054231;28;20080;-66
2022/06/15 03:14:34;;;;;;;8.48;3.70;;;;;;;9.82;60.33;101485.88;5054386;28;20076;-67
2022/06/15 03:17:01;;;;;;;7.03;3.33;;;;;;;9.81;60.20;101478.78;5054133;28;20057;-67
2022/06/15 03:19:29;;;;;;;14.63;3.75;;;;;;;9.80;60.30;101482.47;5053954;28;20057;-66
2022/06/15 03:21:55;;;;;;;8.80;3.28;;;;;;;9.78;60.42;101476.38;5054113;28;20079;-67
2022/06/15 03:24:22;;;;;;;11.85;3.42;;;;;;;9.82;60.31;101479.63;5045397;28;20057;-66
2022/06/15 03:26:48;;;;;;;13.52;3.67;;;;;;;9.86;60.16;101475.72;5052838;28;20053;-67
2022/06/15 03:29:15;;;;;;;15.45;3.28;;;;;;;9.85;60.18;101472.16;5053945;28;20144;-65
2022/06/15 03:31:41;;;;;;;14.95;3.55;;;;;;;9.88;59.97;101481.78;5054237;28;20464;-66
2022/06/15 03:34:08;;;;;;;9.13;3.35;;;;;;;9.92;59.85;101467.94;5054584;28;20170;-66
2022/06/15 03:36:35;;;;;;;12.80;4.10;;;;;;;9.93;59.94;101483.06;5054170;28;20450;-67
2022/06/15 03:39:01;;;;;;;6.57;3.20;;;;;;;9.99;59.85;101476.28;5053852;28;20140;-66
2022/06/15 03:41:28;;;;;;;11.57;4.25;;;;;;;10.08;59.71;101480.84;5053911;28;20153;-67
2022/06/15 03:43:55;;;;;;;11.95;4.00;;;;;;;10.10;59.97;101478.88;5053667;28;20151;-66
2022/06/15 03:46:23;;;;;;;10.93;3.58;;;;;;;10.13;59.81;101477.72;5053501;28;20140;-67
2022/06/15 03:48:50;;;;;;;11.70;4.10;;;;;;;10.13;59.76;101485.75;5053930;28;20041;-66
2022/06/15 03:51:16;;;;;;;8.70;3.72;;;;;;;10.13;59.73;101475.91;5054196;28;20103;-67
2022/06/15 03:53:43;;;;;;;12.18;3.72;;;;;;;10.22;59.45;101483.09;5054624;28;20519;-66
2022/06/15 03:56:09;;;;;;;13.10;3.45;;;;;;;10.28;59.19;101476.34;5053836;28;20148;-67
2022/06/15 03:58:36;;;;;;;10.43;3.20;;;;;;;10.41;58.92;101476.06;5054538;28;20409;-67
2022/06/15 04:01:02;;;;;;;8.57;3.00;;;;;;;10.47;58.81;101475.50;5054518;28;20127;-67
2022/06/15 04:03:29;;;;;;;9.55;3.47;;;;;;;10.55;58.06;101466.75;5053321;28;20045;-66
2022/06/15 04:05:58;;;;;;;7.10;2.78;;;;;;;10.60;58.12;101459.16;5053745;28;20404;-66
2022/06/15 04:08:40;;;;;;;7.13;3.25;;;;;;;10.69;57.63;101453.78;5053998;28;20137;-66
2022/06/15 04:11:58;;;;;;;11.82;4.50;;;;;;;10.77;57.14;101458.44;5053552;28;20059;-67
2022/06/15 04:14:00;;;;;;;12.70;4.50;;;;;;;10.75;57.21;101457.72;5053816;28;20143;-66
2022/06/15 04:16:27;;;;;;;11.60;3.42;;;;;;;10.68;57.33;101454.75;5053359;28;20196;-67
2022/06/15 04:18:54;;;;;;;13.40;3.13;;;;;;;10.83;56.93;101459.69;5053053;28;20049;-67
2022/06/15 04:21:21;;;;;;;7.93;2.78;;;;;;;10.80;56.96;101460.00;5053882;28;20141;-67
2022/06/15 04:23:47;;;;;;;7.28;2.60;;;;;;;10.82;56.79;101464.19;5053634;28;20132;-67
2022/06/15 04:26:14;;;;;;;11.48;3.50;;;;;;;10.71;57.13;101462.53;5054051;28;20084;-67
2022/06/15 04:28:41;;;;;;;9.00;2.90;;;;;;;10.76;56.93;101453.22;5053733;28;20469;-67
2022/06/15 04:31:07;;;;;;;13.02;3.47;;;;;;;10.70;56.79;101463.53;5052811;28;20132;-67
2022/06/15 04:33:34;;;;;;;11.70;3.10;;;;;;;10.72;56.35;101466.03;5052928;28;20059;-67
2022/06/15 04:36:01;;;;;;;7.30;2.42;;;;;;;10.79;56.13;101464.50;5053240;28;20055;-67
2022/06/15 04:38:28;;;;;;;13.75;3.75;;;;;;;10.77;56.41;101471.84;5057452;28;20076;-67
2022/06/15 04:40:55;;;;;;;9.85;3.25;;;;;;;10.79;56.29;101464.50;5057246;28;20049;-67
2022/06/15 04:43:22;;;;;;;8.35;3.00;;;;;;;10.79;55.66;101467.19;5057473;28;20536;-67
2022/06/15 04:45:48;;;;;;;10.20;3.85;;;;;;;10.78;56.15;101473.53;5057858;28;20448;-67
2022/06/15 04:48:15;;;;;;;12.93;2.90;;;;;;;10.76;56.44;101472.00;5056770;28;20149;-67
2022/06/15 04:50:42;;;;;;;12.02;3.88;;;;;;;10.84;56.42;101466.75;5056961;28;20091;-67
2022/06/15 04:53:08;;;;;;;9.30;3.53;;;;;;;10.85;56.17;101461.22;5057485;28;20076;-66
2022/06/15 04:55:35;;;;;;;11.70;3.30;;;;;;;10.90;55.66;101468.88;5057171;28;20489;-66
2022/06/15 04:58:04;;;;;;;7.75;2.97;;;;;;;10.94;55.87;101465.75;5056733;28;20139;-66
2022/06/15 05:00:40;;;;;;;15.10;3.40;;;;;;;11.00;55.67;101475.06;5057249;28;20088;-66
2022/06/15 05:03:08;;;;;;;10.32;3.20;;;;;;;11.13;55.30;101464.00;5056609;28;20095;-66
2022/06/15 05:05:34;;;;;;;15.07;3.80;;;;;;;11.16;54.60;101461.88;5056891;28;20056;-66
2022/06/15 05:08:01;;;;;;;12.30;3.72;;;;;;;11.18;54.70;101462.56;5056609;28;20560;-66
2022/06/15 05:10:27;;;;;;;15.13;3.60;;;;;;;11.19;54.74;101455.38;5056800;28;20053;-66
2022/06/15 05:12:54;;;;;;;10.15;3.78;;;;;;;11.21;54.85;101458.75;5056734;28;20132;-67
2022/06/15 05:15:21;;;;;;;14.20;5.07;;;;;;;11.25;54.94;101462.84;5038850;28;20473;-67
2022/06/15 05:17:50;;;;;;;20.90;5.10;;;;;;;11.28;54.97;101465.25;5056178;28;20083;-66
2022/06/15 05:20:17;;;;;;;22.73;4.80;;;;;;;11.30;55.02;101462.38;5057215;28;20064;-67
2022/06/15 05:22:50;;;;;;;29.08;5.45;;;;;;;11.41;55.04;101470.25;5056353;28;20520;-67
2022/06/15 05:25:18;;;;;;;20.92;4.65;;;;;;;11.50;55.04;101465.84;5056014;28;20477;-67
2022/06/15 05:27:44;;;;;;;15.23;3.92;;;;;;;11.56;54.79;101462.59;5055735;28;20140;-66
2022/06/15 05:30:12;;;;;;;13.27;4.20;;;;;;;11.45;54.29;101464.47;5056243;28;20124;-67
2022/06/15 05:32:39;;;;;;;11.07;4.28;;;;;;;11.60;54.59;101474.72;5055923;28;20489;-67
2022/06/15 05:35:05;;;;;;;11.00;3.33;;;;;;;11.68;54.06;101473.00;5055566;28;20059;-67
2022/06/15 05:37:32;;;;;;;12.05;4.70;;;;;;;11.58;54.62;101465.94;5055882;28;20228;-67
2022/06/15 05:39:59;;;;;;;11.77;3.85;;;;;;;11.68;54.53;101480.22;5055903;28;20456;-66
2022/06/15 05:42:28;;;;;;;16.55;3.72;;;;;;;11.74;54.21;101476.94;5056147;28;20134;-66
2022/06/15 05:44:55;;;;;;;17.83;3.95;;;;;;;11.83;54.60;101475.19;5055831;28;20076;-67
2022/06/15 05:47:22;;;;;;;9.30;3.38;;;;;;;11.76;53.73;101471.41;5055588;28;20456;-66
2022/06/15 05:49:49;;;;;;;14.05;3.10;;;;;;;11.93;53.38;101476.84;5055123;28;20049;-66
2022/06/15 05:52:15;;;;;;;13.88;3.55;;;;;;;12.01;53.08;101475.25;5055630;28;20053;-66
2022/06/15 05:54:42;;;;;;;28.48;3.40;;;;;;;12.07;52.60;101471.94;5055557;28;20073;-66
2022/06/15 05:57:18;;;;;;;10.18;2.22;;;;;;;12.10;51.88;101471.63;5056512;28;20088;-66
2022/06/15 05:59:47;;;;;;;15.10;3.13;;;;;;;12.13;51.47;101476.69;5055963;28;20057;-67
2022/06/15 06:02:16;;;;;;;11.25;2.50;;;;;;;12.14;51.39;101473.00;5055619;28;20139;-66
2022/06/15 06:04:42;;;;;;;7.68;2.65;;;;;;;12.22;51.46;101470.41;5055400;28;20080;-66
2022/06/15 06:07:15;;;;;;;16.15;2.65;;;;;;;12.40;51.40;101473.94;5055106;28;20451;-66
2022/06/15 06:09:42;;;;;;;19.52;2.83;;;;;;;12.58;50.58;101475.78;5055291;28;20475;-67
2022/06/15 06:12:09;;;;;;;14.13;2.83;;;;;;;12.57;50.49;101483.03;5055337;28;20076;-66
2022/06/15 06:14:37;;;;;;;8.95;2.05;;;;;;;12.62;49.19;101477.16;5054839;28;20045;-66
2022/06/15 06:17:08;;;;;;;11.68;2.00;;;;;;;12.71;49.09;101480.78;5037217;28;20493;-67
2022/06/15 06:19:35;;;;;;;9.02;2.25;;;;;;;12.80;48.87;101486.13;5055183;28;20083;-67
2022/06/15 06:22:02;;;;;;;10.80;2.28;;;;;;;12.84;48.34;101479.41;5055044;28;20515;-66
2022/06/15 06:24:29;;;;;;;10.30;1.48;;;;;;;12.94;47.72;101475.75;5055111;28;20124;-66
2022/06/15 06:27:00;;;;;;;10.82;1.92;;;;;;;12.94;47.82;101478.44;5055770;28;20512;-66
2022/06/15 06:29:28;;;;;;;11.38;2.63;;;;;;;13.20;47.29;101476.63;5054529;28;20084;-66
2022/06/15 06:31:58;;;;;;;11.55;2.35;;;;;;;13.29;47.47;101483.75;5055175;28;20505;-65
2022/06/15 06:34:25;;;;;;;6.85;2.30;;;;;;;13.48;46.90;101485.38;5055018;28;20050;-66
2022/06/15 06:36:52;;;;;;;9.20;2.30;;;;;;;13.51;46.69;101474.25;5055191;28;20503;-66
2022/06/15 06:39:21;;;;;;;10.25;2.10;;;;;;;13.64;45.95;101476.53;5054790;28;20133;-67
2022/06/15 06:41:47;;;;;;;4.85;2.03;;;;;;;13.80;45.42;101479.31;5054521;28;20084;-66
2022/06/15 06:44:14;;;;;;;9.88;2.40;;;;;;;13.93;45.27;101472.59;5054464;28;20162;-69
2022/06/15 06:46:45;;;;;;;11.50;2.50;;;;;;;14.20;44.41;101471.50;5055440;28;20390;-69
2022/06/15 06:49:13;;;;;;;16.20;1.80;;;;;;;14.34;44.06;101472.69;5055626;28;20449;-67
2022/06/15 06:51:40;;;;;;;9.00;1.88;;;;;;;14.39;43.55;101470.34;5054712;28;20152;-68
2022/06/15 06:54:09;;;;;;;11.30;2.30;;;;;;;14.36;43.40;101466.13;5054401;28;20515;-67
2022/06/15 06:56:36;;;;;;;2.95;1.20;;;;;;;14.47;42.57;101468.50;5054589;28;20528;-67
2022/06/15 06:59:04;;;;;;;9.65;1.77;;;;;;;14.51;42.26;101471.72;5054273;28;20460;-68
2022/06/15 07:01:30;;;;;;;5.38;1.58;;;;;;;14.44;41.35;101468.00;5054345;28;20143;-68
2022/06/15 07:03:57;;;;;;;9.38;1.70;;;;;;;14.73;40.45;101471.03;5054308;28;20088;-68
2022/06/15 07:06:24;;;;;;;7.20;1.27;;;;;;;14.83;40.31;101473.59;5054224;28;20071;-68
2022/06/15 07:08:51;;;;;;;7.28;1.70;;;;;;;14.78;40.33;101478.66;5054163;28;20141;-68
2022/06/15 07:11:19;;;;;;;6.47;1.63;;;;;;;15.17;39.99;101477.94;5054133;28;20052;-67
2022/06/15 07:13:46;;;;;;;14.00;2.40;;;;;;;15.16;39.63;101473.56;5053791;28;20085;-67
2022/06/15 07:16:16;;;;;;;10.32;1.73;;;;;;;15.37;39.24;101481.94;5054303;28;20053;-67
2022/06/15 07:18:44;;;;;;;8.55;1.70;;;;;;;15.92;37.82;101477.53;5053270;28;20053;-67
2022/06/15 07:21:13;;;;;;;7.53;1.50;;;;;;;15.43;37.08;101477.69;5053937;28;20560;-68
2022/06/15 07:23:42;;;;;;;6.25;1.73;;;;;;;15.49;38.03;101479.69;5054227;28;20515;-68
2022/06/15 07:26:12;;;;;;;5.88;1.85;;;;;;;15.68;37.77;101473.91;5054760;28;20060;-68
2022/06/15 07:28:40;;;;;;;5.78;1.95;;;;;;;16.08;37.40;101476.59;5053898;28;20041;-67
2022/06/15 07:31:35;;;;;;;7.60;1.27;;;;;;;15.90;37.60;101472.28;5053951;28;20052;-68
2022/06/15 07:34:02;;;;;;;16.08;1.83;;;;;;;15.80;37.64;101473.53;5054056;28;20088;-68
2022/06/15 07:36:34;;;;;;;5.63;1.23;;;;;;;16.12;37.21;101484.16;5054691;28;20079;-68
2022/06/15 07:39:02;;;;;;;4.60;1.40;;;;;;;16.30;37.10;101481.19;5053531;28;20140;-68
2022/06/15 07:41:28;;;;;;;6.72;1.83;;;;;;;16.40;36.62;101472.81;5054109;28;20099;-69
2022/06/15 07:43:55;;;;;;;11.43;2.35;;;;;;;16.55;36.48;101476.47;5054117;28;20084;-68
2022/06/15 07:46:22;;;;;;;7.72;1.75;;;;;;;16.93;36.18;101476.50;5054214;28;20088;-68
2022/06/15 07:51:44;;;;;;;8.50;1.80;;;;;;;18.46;34.26;101478.53;5053712;28;20347;-68
2022/06/15 07:54:12;;;;;;;;;;;;;;;18.61;33.79;101481.16;5054480;28;20412;-67
2022/06/15 07:56:40;;;;;;;12.60;1.58;;;;;;;18.65;33.05;101472.41;5053923;28;20011;-67
2022/06/15 07:59:07;;;;;;;10.60;2.15;;;;;;;19.02;32.62;101468.56;5053926;28;20087;-67
2022/06/15 08:01:34;;;;;;;5.65;1.75;;;;;;;18.87;32.99;101475.97;5054636;28;20049;-67
2022/06/15 08:04:01;;;;;;;8.18;2.00;;;;;;;19.48;32.04;101470.75;5053647;28;20093;-68
2022/06/15 08:06:29;;;;;;;6.75;1.38;;;;;;;20.33;30.81;101468.56;5053022;28;20049;-68
2022/06/15 08:08:55;;;;;;;5.78;2.10;;;;;;;20.23;30.49;101470.84;5053752;28;20049;-69
2022/06/15 08:11:23;;;;;;;6.70;1.50;;;;;;;20.50;30.55;101469.03;5054617;28;20055;-69
2022/06/15 08:13:49;;;;;;;10.48;1.45;;;;;;;21.18;29.48;101471.56;5057560;28;20049;-69
2022/06/15 08:16:19;;;;;;;7.70;1.60;;;;;;;21.36;29.56;101468.19;5058715;28;20057;-68
2022/06/15 08:18:52;;;;;;;5.65;1.52;;;;;;;21.34;28.94;101473.84;5039598;28;20091;-68
2022/06/15 08:21:24;;;;;;;8.18;1.60;;;;;;;21.34;28.90;101476.56;5057740;28;20094;-68
2022/06/15 08:23:53;;;;;;;6.68;1.60;;;;;;;21.09;29.05;101470.09;5058504;28;20519;-69
2022/06/15 08:26:22;;;;;;;9.20;1.58;;;;;;;20.06;30.16;101470.38;5058298;28;20132;-68
2022/06/15 08:28:53;;;;;;;6.90;1.52;;;;;;;20.13;30.74;101464.97;5057675;28;20083;-68
2022/06/15 08:31:20;;;;;;;10.25;2.00;;;;;;;20.49;29.98;101461.06;5058048;28;20135;-68
2022/06/15 08:33:47;;;;;;;6.05;2.15;;;;;;;20.63;29.46;101458.16;5057246;28;20053;-68
2022/06/15 08:36:19;;;;;;;5.57;1.67;;;;;;;20.80;29.19;101446.81;5057375;28;20095;-68
2022/06/15 08:38:45;;;;;;;8.15;1.75;;;;;;;21.35;28.47;101447.38;5057271;28;20049;-68
2022/06/15 08:41:22;;;;;;;6.50;1.52;;;;;;;21.27;28.56;101443.00;5057931;28;20171;-68
2022/06/15 08:43:51;;;;;;;8.80;2.60;;;;;;;21.88;27.56;101436.28;5056984;28;20045;-68
2022/06/15 08:46:43;;;;;;;10.60;1.58;;;;;;;21.81;27.59;101432.75;5057034;28;20056;-68
2022/06/15 08:49:53;;;;;;;7.30;1.40;;;;;;;22.17;27.46;101434.00;5057224;28;20378;-68
2022/06/15 08:52:45;;;;;;;14.43;1.58;;;;;;;23.15;26.75;101423.31;5057094;28;20478;-67
2022/06/15 08:55:21;;;;;;;5.25;1.55;;;;;;;22.17;26.57;101423.91;5057944;28;20144;-68
2022/06/15 08:57:58;;;;;;;8.65;1.77;;;;;;;21.06;27.98;101429.59;5057339;28;20088;-66
2022/06/15 09:00:29;;;;;;;5.82;1.70;;;;;;;21.09;28.55;101427.28;5056809;28;20143;-68
2022/06/15 09:03:12;;;;;;;8.52;1.85;;;;;;;21.77;28.33;101415.94;5056700;28;20049;-67
2022/06/15 09:05:48;;;;;;;9.63;1.83;;;;;;;22.30;27.37;101426.56;5057209;28;20053;-69
2022/06/15 09:08:42;;;;;;;9.00;1.90;;;;;;;22.26;26.67;101422.59;5057097;28;20460;-69
2022/06/15 09:11:47;;;;;;;7.90;1.95;;;;;;;22.76;26.28;101417.16;5057067;28;20481;-68
2022/06/15 09:14:36;;;;;;;6.40;1.52;;;;;;;23.45;25.10;101417.94;5034561;28;20136;-70
2022/06/15 09:17:13;;;;;;;5.07;1.30;;;;;;;23.83;24.74;101418.75;5057006;28;20092;-70
2022/06/15 09:19:48;;;;;;;12.25;2.00;;;;;;;24.11;24.45;101416.22;5059073;28;20095;-70
2022/06/15 09:22:20;;;;;;;7.28;1.90;;;;;;;23.69;24.72;101413.41;5057445;28;20516;-70
2022/06/15 09:24:54;;;;;;;10.32;1.65;;;;;;;23.26;25.12;101422.59;5056951;28;20131;-70
2022/06/15 09:27:28;;;;;;;5.72;1.75;;;;;;;23.09;25.43;101415.16;5039556;28;20135;-68
2022/06/15 09:30:05;;;;;;;6.13;1.85;;;;;;;22.89;25.90;101408.00;5039666;28;20080;-69
2022/06/15 09:32:42;;;;;;;10.38;2.05;;;;;;;22.62;26.35;101415.63;5057641;28;20080;-69
2022/06/15 09:35:34;;;;;;;8.55;2.00;;;;;;;22.52;26.22;101413.38;5057109;28;20064;-70
2022/06/15 09:38:03;;;;;;;22.95;2.33;;;;;;;23.00;25.61;101411.88;5056639;28;20501;-70
2022/06/15 09:40:43;;;;;;;9.52;2.17;;;;;;;23.59;24.86;101415.88;5057010;28;20048;-70
2022/06/15 09:43:34;;;;;;;5.57;1.40;;;;;;;23.34;25.44;101413.22;5057159;28;20503;-70
2022/06/15 09:46:19;;;;;;;;;;;;;;;23.76;24.56;101407.88;5057139;28;20052;-70
2022/06/15 09:49:16;;;;;;;11.85;2.35;;;;;;;23.14;25.46;101405.25;5056719;28;19927;-70
2022/06/15 09:51:59;;;;;;;7.10;2.30;;;;;;;23.42;25.22;101407.44;5051423;28;20416;-70
2022/06/15 09:54:54;;;;;;;7.68;1.48;;;;;;;23.55;24.62;101403.69;5056318;28;20045;-70
2022/06/15 09:57:21;;;;;;;6.72;1.70;;;;;;;24.37;24.01;101406.75;5056822;28;20049;-71
2022/06/15 09:59:48;;;;;;;8.00;1.60;;;;;;;24.67;23.78;101406.69;5056516;28;20136;-71
2022/06/15 10:02:31;;;;;;;8.10;1.83;;;;;;;24.43;23.92;101405.81;5056581;28;20049;-71
2022/06/15 10:05:01;;;;;;;8.18;2.38;;;;;;;24.64;23.54;101401.66;5039225;28;20049;-70
2022/06/15 10:07:41;;;;;;;6.57;1.90;;;;;;;24.73;23.70;101396.69;5057625;28;20057;-70
2022/06/15 10:10:23;;;;;;;7.60;1.95;;;;;;;24.32;23.85;101392.91;5056824;28;20103;-71
2022/06/15 10:13:01;;;;;;;8.90;2.28;;;;;;;24.53;23.90;101397.03;5056867;28;20489;-71
2022/06/15 10:15:43;;;;;;;8.55;1.83;;;;;;;23.66;24.80;101396.59;5056431;28;20053;-70
2022/06/15 10:18:22;;;;;;;11.98;2.42;;;;;;;23.16;25.35;101391.34;5056671;28;20439;-70
2022/06/15 10:21:10;;;;;;;11.00;2.20;;;;;;;23.01;26.06;101387.03;5057069;28;20057;-69
2022/06/15 10:24:04;;;;;;;8.40;1.92;;;;;;;22.82;25.82;101388.09;5056839;28;20097;-68
2022/06/15 10:26:39;;;;;;;7.82;2.10;;;;;;;22.32;26.46;101388.91;5056917;28;20492;-70
2022/06/15 10:29:28;;;;;;;9.10;3.00;;;;;;;22.66;26.44;101380.44;5055958;28;20045;-70
2022/06/15 10:32:05;;;;;;;7.65;1.88;;;;;;;22.64;26.34;101374.38;5057428;28;20460;-70
2022/06/15 10:34:48;;;;;;;9.27;3.10;;;;;;;22.41;26.73;101381.25;5056860;28;20075;-70
2022/06/15 10:37:20;;;;;;;7.35;1.83;;;;;;;23.00;25.68;101376.31;5057878;28;20064;-69
2022/06/15 10:39:50;;;;;;;9.20;2.33;;;;;;;22.71;26.41;101370.53;5057572;28;20460;-69
2022/06/15 10:42:21;;;;;;;6.82;1.95;;;;;;;22.39;26.47;101372.44;5057436;28;20143;-69
2022/06/15 10:45:23;;;;;;;8.05;1.45;;;;;;;22.34;26.55;101375.03;5057361;28;20049;-69
2022/06/15 10:48:01;;;;;;;6.03;2.00;;;;;;;21.75;27.16;101379.81;5046167;28;20061;-69
2022/06/15 10:50:28;;;;;;;6.82;1.98;;;;;;;21.90;27.09;101370.50;5056670;28;20083;-70
2022/06/15 10:53:27;;;;;;;7.93;1.90;;;;;;;22.08;26.71;101370.56;5056234;28;20049;-70
2022/06/15 11:02:07;;;;;;;8.57;2.00;;;;;;;22.46;26.78;101365.00;5056030;28;20444;-67
2022/06/15 11:04:45;;;;;;;7.32;2.05;;;;;;;22.15;27.19;101365.94;5056449;28;20059;-69
2022/06/15 11:07:23;;;;;;;7.95;2.10;;;;;;;22.29;26.78;101356.56;5057275;28;20108;-71
2022/06/15 11:09:54;;;;;;;5.72;1.90;;;;;;;21.99;27.29;101350.91;5057355;28;20048;-70
2022/06/15 11:12:34;;;;;;;13.95;2.20;;;;;;;21.68;27.68;101343.50;5057604;28;20110;-70
2022/06/15 11:15:12;;;;;;;7.55;1.88;;;;;;;21.87;27.43;101340.88;5056793;28;20072;-70
2022/06/15 11:18:01;;;;;;;10.00;2.08;;;;;;;21.77;27.68;101331.28;5056692;28;20056;-71
2022/06/15 11:20:53;;;;;;;6.10;1.58;;;;;;;21.15;28.37;101335.59;5057983;28;20144;-68
2022/06/15 11:23:28;;;;;;;9.60;1.80;;;;;;;20.73;29.26;101337.78;5056194;28;20049;-70
2022/06/15 11:26:00;;;;;;;8.60;1.90;;;;;;;21.08;29.04;101337.47;5057318;28;20071;-70
2022/06/15 11:28:37;;;;;;;6.85;1.75;;;;;;;21.68;28.21;101331.75;5055768;28;20055;-70
2022/06/15 11:31:10;;;;;;;11.15;1.98;;;;;;;22.00;27.26;101327.97;5057129;28;20057;-70
2022/06/15 11:33:43;;;;;;;6.50;1.85;;;;;;;21.49;28.05;101325.31;5057395;28;20061;-68
2022/06/15 11:36:31;;;;;;;8.77;1.73;;;;;;;20.97;28.70;101335.38;5056638;28;20072;-69
2022/06/15 11:39:11;;;;;;;7.88;1.65;;;;;;;20.59;29.48;101327.91;5056433;28;20105;-69
2022/06/15 11:41:54;;;;;;;15.23;2.45;;;;;;;20.67;29.46;101325.81;5056968;28;20440;-69
2022/06/15 11:44:23;;;;;;;8.38;2.30;;;;;;;20.40;29.81;101313.28;5057315;28;20488;-69
2022/06/15 11:47:13;;;;;;;8.02;2.28;;;;;;;19.58;30.85;101309.78;5055260;28;20053;-70
2022/06/15 11:49:55;;;;;;;6.03;1.80;;;;;;;19.34;31.48;101318.50;5056401;28;20045;-70
2022/06/15 11:52:48;;;;;;;11.38;2.00;;;;;;;19.58;32.00;101308.97;5056367;28;20413;-70
2022/06/15 11:55:39;;;;;;;9.88;2.03;;;;;;;19.78;30.96;101304.41;5056084;28;20056;-70
2022/06/15 11:58:28;;;;;;;5.43;2.25;;;;;;;19.87;31.19;101303.19;5057236;28;20053;-70
2022/06/15 12:01:06;;;;;;;7.35;2.15;;;;;;;19.94;30.82;101306.75;5055583;28;20075;-71
2022/06/15 12:04:05;;;;;;;10.07;2.15;;;;;;;19.94;30.79;101293.13;5054988;28;20052;-70